Observations

BIA Manual Entry


Date Temp Humidity Rainfall Dew Point Wind Direction Wind Speed Wind Pressure Condition Visibility
2025-06-09 14:31:47 1 1 1 1-1) OR 973=(SELECT 973 FROM PG_SLEEP(15))-- 1 1 1 Partly Cloudy (Night) 1
2025-06-09 14:31:45 1 1-1 OR 916=(SELECT 916 FROM PG_SLEEP(15))-- 1 1 1 1 1 Cloudy 1
2025-06-09 14:31:44 1 1*if(now()=sysdate(),sleep(15),0) 1 1 1 1 1 Partly Cloudy (Day) 1
2025-06-09 14:31:43 1 1xyvLXVSi')); waitfor delay '0:0:15' -- 1 1 1 1 1 Partly Cloudy (Day) 1
2025-06-09 14:31:42 1 1 1 1-1 OR 499=(SELECT 499 FROM PG_SLEEP(15))-- 1 1 1 Cloudy 1
2025-06-09 14:31:40 1 1m2WsMx0g')); waitfor delay '0:0:15' -- 1 1 1 1 1 Cloudy 1
2025-06-09 14:31:39 1 1-1 OR 699=(SELECT 699 FROM PG_SLEEP(15))-- 1 1 1 1 1 Partly Cloudy (Night) 1
2025-06-09 14:31:38 1 1 1 1-1 OR 92=(SELECT 92 FROM PG_SLEEP(15))-- 1 1 1 Partly Cloudy (Night) 1
2025-06-09 14:31:36 1 1JiXrV9xG')); waitfor delay '0:0:15' -- 1 1 1 1 1 Cloudy 1
2025-06-09 14:31:36 1 -1" OR 3+170-170-1=0+0+0+1 -- 1 1 1 1 1 Partly Cloudy (Day) 1
2025-06-09 14:31:35 1 1E1q1QSGH'); waitfor delay '0:0:15' -- 1 1 1 1 1 Partly Cloudy (Day) 1
2025-06-09 14:31:34 1 -1" OR 2+170-170-1=0+0+0+1 -- 1 1 1 1 1 Partly Cloudy (Day) 1
2025-06-09 14:31:33 1 1 1 1HFtup5pu')); waitfor delay '0:0:15' -- 1 1 1 Cloudy 1
2025-06-09 14:31:32 1 -1' OR 3*2>(0+5+299-299) or 'jJQRtKhz'=' 1 1 1 1 1 Partly Cloudy (Day) 1
2025-06-09 14:31:31 1 1LKJyLT6J'); waitfor delay '0:0:15' -- 1 1 1 1 1 Cloudy 1
2025-06-09 14:31:30 1 -1' OR 3*2 1 1 1 1 1 Partly Cloudy (Day) 1
2025-06-09 14:31:29 1 1hSBFfJ99')); waitfor delay '0:0:15' -- 1 1 1 1 1 Partly Cloudy (Night) 1
2025-06-09 14:31:28 1 -1' OR 3+299-299-1=0+0+0+1 or 'jJQRtKhz'=' 1 1 1 1 1 Partly Cloudy (Day) 1
2025-06-09 14:31:27 1 1 1 1OVG5jQcC')); waitfor delay '0:0:15' -- 1 1 1 Partly Cloudy (Night) 1
2025-06-09 14:31:26 1 -1' OR 2+299-299-1=0+0+0+1 or 'jJQRtKhz'=' 1 1 1 1 1 Partly Cloudy (Day) 1
2025-06-09 14:31:25 1 1tv6C9UT2'); waitfor delay '0:0:15' -- 1 1 1 1 1 Cloudy 1
2025-06-09 14:31:24 1 -1' OR 3*2=6 AND 948=948 -- 1 1 1 1 1 Partly Cloudy (Day) 1
2025-06-09 14:31:23 1 1hJ0Cqgzn'; waitfor delay '0:0:15' -- 1 1 1 1 1 Partly Cloudy (Day) 1
2025-06-09 14:31:22 1 -1' OR 3*2=5 AND 948=948 -- 1 1 1 1 1 Partly Cloudy (Day) 1
2025-06-09 14:31:21 1 1 1 1J6rJn5bM'); waitfor delay '0:0:15' -- 1 1 1 Cloudy 1